Hlavní strana
METAR-TAF:

METAR-TAF

Letiště :

Kuvajt, Kuvajt

zeměpisná šířka: 29-13N, zeměpisná délka: 047-59E, výška: 55 m

Aktuální stav počasí

Zpráva byla vytvořena před 47 minutami, v 22:00 UTC
Bezvětří
Teplota 14°C
Vlhkost vzduchu 94%
Tlak 1023 hPa
Viditelnost 10 km a více
Žádná oblačnost pod 1500 m, nevyskytují se cumulonimby.

METAR: OKBK 132200Z 00000KT CAVOK 14/13 Q1023 NOSIG

Čas: 01:47 (22:47 UTC)

Předpověď počasí

Zpráva byla vytvořena před 6 hodinami a 2 minutami, v 16:45 UTC
Předpověď platná od 13 v 18 UTC do 14 v 24 UTC
vítr z různých směrů 3 kt
Viditelnost: 7000 m
Jasno
Dočasný
od 13 v 20 UTC do 14 v 04 UTC
Viditelnost: 2500 m
kouřmo

TAF: OKBK 131645Z 1318/1424 VRB03KT 7000 SKC TEMPO 1320/1404 2500 BR

Stav a předpovědi počasí z více než 4 000 letišť (zprávy METAR a TAF).

Červené a žluté tečky na mapě představují dostupné meteorologické stanice.

Když kurzor umístíte na tečku, zobrazí se název stanice.

Pak kliknutím zobrazíte stav a předpověď počasí.

Chcete-li změnit mapu, kliknutím na zelené tlačítko se znaménkem +mapu přiblížíte, kliknutím na zelené tlačítko se znaménkem – mapu oddálíte a kliknutím na zelené šipky přejdete na sousední mapy.


METAR-TAF: